createdAt,value
2019-05-14T00:02:12.168Z,2.90
2019-05-14T00:04:39.290Z,2.90
2019-05-14T00:07:06.463Z,2.90
2019-05-14T00:09:36.300Z,2.80
2019-05-14T00:12:07.965Z,2.70
2019-05-14T00:14:40.086Z,2.70
2019-05-14T00:17:11.196Z,2.70
2019-05-14T00:19:41.961Z,2.60
2019-05-14T00:22:11.512Z,2.60
2019-05-14T00:24:38.453Z,2.60
2019-05-14T00:27:06.988Z,2.60
2019-05-14T00:32:36.516Z,2.60
2019-05-14T00:34:57.444Z,2.60
2019-05-14T00:37:25.646Z,2.50
2019-05-14T00:39:52.283Z,2.50
2019-05-14T00:42:22.588Z,2.50
2019-05-14T00:44:57.829Z,2.50
2019-05-14T00:47:24.676Z,2.50
2019-05-14T00:49:51.870Z,2.40
2019-05-14T00:52:35.812Z,2.40
2019-05-14T00:55:06.033Z,2.40
2019-05-14T00:57:34.793Z,2.30
2019-05-14T01:00:01.884Z,2.30
2019-05-14T01:02:31.994Z,2.20
2019-05-14T01:05:12.168Z,2.20
2019-05-14T01:07:45.042Z,2.20
2019-05-14T01:10:18.426Z,2.20
2019-05-14T01:12:52.059Z,2.20
2019-05-14T01:15:21.500Z,2.10
2019-05-14T01:17:51.376Z,2.10
2019-05-14T01:20:18.625Z,2.10
2019-05-14T01:22:47.568Z,2.10
2019-05-14T01:25:14.077Z,2.10
2019-05-14T01:27:41.620Z,2.00
2019-05-14T01:30:12.433Z,2.10
2019-05-14T01:32:42.095Z,2.00
2019-05-14T01:35:18.679Z,2.00
2019-05-14T01:37:47.217Z,2.00
2019-05-14T01:40:18.229Z,1.90
2019-05-14T01:42:45.963Z,1.90
2019-05-14T01:45:25.071Z,1.90
2019-05-14T01:47:46.209Z,1.90
2019-05-14T01:50:14.022Z,1.80
2019-05-14T01:52:47.702Z,1.80
2019-05-14T01:55:25.133Z,1.80
2019-05-14T01:57:55.356Z,1.80
2019-05-14T02:00:37.124Z,1.70
2019-05-14T02:03:05.496Z,1.70
2019-05-14T02:05:37.026Z,1.70
2019-05-14T02:08:13.397Z,1.80
2019-05-14T02:10:53.976Z,1.70
2019-05-14T02:13:31.909Z,1.70
2019-05-14T02:15:56.056Z,1.70
2019-05-14T02:18:24.460Z,1.70
2019-05-14T02:20:53.624Z,1.60
2019-05-14T02:23:22.864Z,1.70
2019-05-14T02:25:55.433Z,1.60
2019-05-14T02:28:27.497Z,1.60
2019-05-14T02:30:59.069Z,1.60
2019-05-14T02:33:26.017Z,1.50
2019-05-14T02:36:00.048Z,1.40
2019-05-14T02:38:29.972Z,1.30
2019-05-14T02:40:59.964Z,1.30
2019-05-14T02:43:50.965Z,1.20
2019-05-14T02:46:21.845Z,1.20
2019-05-14T02:48:49.486Z,1.10
2019-05-14T02:51:19.877Z,1.10
2019-05-14T02:53:49.591Z,1.10
2019-05-14T02:56:16.464Z,1.10
2019-05-14T02:58:49.604Z,1.00
2019-05-14T03:01:19.844Z,1.00
2019-05-14T03:03:45.316Z,0.90
2019-05-14T03:06:14.666Z,0.80
2019-05-14T03:08:44.969Z,0.80
2019-05-14T03:11:16.137Z,0.80
2019-05-14T03:13:43.100Z,0.80
2019-05-14T03:16:29.352Z,0.80
2019-05-14T03:18:55.401Z,0.90
2019-05-14T03:21:20.173Z,0.90
2019-05-14T03:23:49.534Z,0.80
2019-05-14T03:26:20.000Z,0.80
2019-05-14T03:28:49.661Z,0.80
2019-05-14T03:31:32.992Z,0.70
2019-05-14T03:34:13.428Z,0.70
2019-05-14T03:36:43.747Z,0.70
2019-05-14T03:39:10.794Z,0.70
2019-05-14T03:41:39.790Z,0.70
2019-05-14T03:44:13.617Z,0.70
2019-05-14T03:46:51.255Z,0.70
2019-05-14T03:49:12.800Z,0.70
2019-05-14T03:51:40.062Z,0.70
2019-05-14T03:54:12.723Z,0.70
2019-05-14T03:56:49.647Z,0.70
2019-05-14T03:59:19.681Z,0.70
2019-05-14T04:01:51.195Z,0.70
2019-05-14T04:04:19.416Z,0.70
2019-05-14T04:06:49.966Z,0.70
2019-05-14T04:09:22.798Z,0.70
2019-05-14T04:11:52.054Z,0.70
2019-05-14T04:14:25.384Z,0.70
2019-05-14T04:17:09.310Z,0.70
2019-05-14T04:19:32.511Z,0.70
2019-05-14T04:22:14.993Z,0.70
2019-05-14T04:24:55.384Z,0.70
2019-05-14T04:27:29.600Z,0.70
2019-05-14T04:30:20.569Z,0.70
2019-05-14T04:32:50.582Z,0.70
2019-05-14T04:35:20.195Z,0.70
2019-05-14T04:37:49.376Z,0.80
2019-05-14T04:40:14.949Z,0.80
2019-05-14T04:42:42.406Z,0.80
2019-05-14T04:45:11.653Z,0.80
2019-05-14T04:47:42.174Z,0.90
2019-05-14T04:50:11.139Z,0.90
2019-05-14T04:52:40.262Z,0.90
2019-05-14T04:55:09.866Z,1.00
2019-05-14T04:57:39.248Z,1.10
2019-05-14T05:00:12.185Z,1.20
2019-05-14T05:02:42.755Z,1.30
2019-05-14T05:05:24.787Z,1.50
2019-05-14T05:07:52.819Z,1.60
2019-05-14T05:10:25.566Z,1.70
2019-05-14T05:12:58.640Z,1.80
2019-05-14T05:15:25.161Z,1.90
2019-05-14T05:17:58.751Z,1.90
2019-05-14T05:20:31.381Z,2.00
2019-05-14T05:23:02.146Z,2.10
2019-05-14T05:25:30.310Z,2.20
2019-05-14T05:27:59.839Z,2.30
2019-05-14T05:30:29.735Z,2.30
2019-05-14T05:32:59.493Z,2.40
2019-05-14T05:35:25.902Z,2.50
2019-05-14T05:37:58.318Z,2.60
2019-05-14T05:43:12.181Z,2.80
2019-05-14T05:45:40.283Z,2.90
2019-05-14T05:48:08.861Z,3.00
2019-05-14T05:50:40.078Z,3.10
2019-05-14T05:53:09.100Z,3.30
2019-05-14T05:55:40.532Z,3.40
2019-05-14T05:58:08.643Z,3.60
2019-05-14T06:00:42.236Z,3.80
2019-05-14T06:03:11.393Z,3.90
2019-05-14T06:05:39.385Z,4.10
2019-05-14T06:08:12.100Z,4.30
2019-05-14T06:10:44.670Z,4.50
2019-05-14T06:13:13.979Z,4.70
2019-05-14T06:15:47.497Z,5.00
2019-05-14T06:18:18.032Z,5.30
2019-05-14T06:20:49.874Z,5.50
2019-05-14T06:23:19.756Z,5.80
2019-05-14T06:25:49.250Z,6.00
2019-05-14T06:28:16.383Z,6.30
2019-05-14T06:30:42.986Z,6.60
2019-05-14T06:33:13.981Z,6.80
2019-05-14T06:35:51.434Z,7.00
2019-05-14T06:38:22.578Z,7.30
2019-05-14T06:40:54.539Z,7.60
2019-05-14T06:43:21.053Z,7.90
2019-05-14T06:45:55.166Z,8.10
2019-05-14T06:48:30.855Z,8.40
2019-05-14T06:50:53.673Z,8.70
2019-05-14T06:53:20.457Z,9.00
2019-05-14T06:55:48.645Z,9.20
2019-05-14T06:58:20.319Z,9.50
2019-05-14T07:00:49.501Z,9.80
2019-05-14T07:03:24.707Z,10.10
2019-05-14T07:05:57.367Z,10.40
2019-05-14T07:08:28.630Z,10.90
2019-05-14T07:11:02.084Z,11.30
2019-05-14T07:13:29.569Z,11.80
2019-05-14T07:16:05.068Z,12.00
2019-05-14T07:18:46.512Z,12.30
2019-05-14T07:21:08.983Z,12.80
2019-05-14T07:23:38.559Z,13.00
2019-05-14T07:26:10.460Z,13.30
2019-05-14T07:28:42.036Z,13.60
2019-05-14T07:31:11.242Z,13.90
2019-05-14T07:33:39.786Z,13.90
2019-05-14T07:36:08.902Z,13.80
2019-05-14T07:38:35.690Z,14.20
2019-05-14T07:41:02.363Z,14.60
2019-05-14T07:43:35.761Z,14.70
2019-05-14T07:46:12.209Z,14.40
2019-05-14T07:49:00.606Z,14.60
2019-05-14T07:51:23.083Z,14.90
2019-05-14T07:53:50.777Z,15.40
2019-05-14T07:56:19.149Z,15.80
2019-05-14T07:58:48.845Z,16.20
2019-05-14T08:01:22.849Z,16.20
2019-05-14T08:03:54.960Z,16.40
2019-05-14T08:06:21.552Z,16.40
2019-05-14T08:08:51.617Z,16.60
2019-05-14T08:11:23.703Z,16.80
2019-05-14T08:13:58.486Z,17.00
2019-05-14T08:16:28.573Z,17.30
2019-05-14T08:19:05.018Z,17.40
2019-05-14T08:21:32.166Z,17.20
2019-05-14T08:23:59.535Z,16.90
2019-05-14T08:26:29.742Z,17.10
2019-05-14T08:29:02.005Z,17.30
2019-05-14T08:31:38.129Z,17.10
2019-05-14T08:34:09.230Z,17.30
2019-05-14T08:36:39.221Z,17.80
2019-05-14T08:39:14.620Z,18.20
2019-05-14T08:41:56.039Z,18.50
2019-05-14T08:44:14.885Z,18.60
2019-05-14T08:46:45.149Z,19.00
2019-05-14T08:49:11.058Z,19.00
2019-05-14T08:51:40.546Z,19.20
2019-05-14T08:54:12.313Z,19.80
2019-05-14T08:56:41.812Z,20.20
2019-05-14T08:59:10.736Z,20.10
2019-05-14T09:01:38.989Z,20.40
2019-05-14T09:04:10.287Z,20.30
2019-05-14T09:06:39.147Z,20.40
2019-05-14T09:09:09.303Z,20.50
2019-05-14T09:11:45.464Z,19.90
2019-05-14T09:14:11.026Z,19.70
2019-05-14T09:16:46.546Z,19.80
2019-05-14T09:19:14.021Z,19.20
2019-05-14T09:21:43.032Z,18.80
2019-05-14T09:24:11.101Z,17.90
2019-05-14T09:26:41.091Z,17.90
2019-05-14T09:29:22.506Z,18.40
2019-05-14T09:31:41.631Z,18.70
2019-05-14T09:34:14.208Z,18.00
2019-05-14T09:36:42.925Z,17.80
2019-05-14T09:39:12.782Z,17.70
2019-05-14T09:41:42.376Z,17.60
2019-05-14T09:44:11.827Z,17.60
2019-05-14T09:46:40.433Z,17.80
2019-05-14T09:49:10.102Z,18.50
2019-05-14T09:51:39.327Z,19.20
2019-05-14T09:57:08.287Z,19.70
2019-05-14T09:59:38.306Z,19.40
2019-05-14T10:02:04.922Z,18.70
2019-05-14T10:04:35.140Z,18.10
2019-05-14T10:07:10.414Z,17.60
2019-05-14T10:09:39.978Z,17.30
2019-05-14T10:12:12.355Z,17.00
2019-05-14T10:14:44.001Z,17.00
2019-05-14T10:17:19.422Z,17.20
2019-05-14T10:19:49.795Z,17.30
2019-05-14T10:22:24.821Z,17.00
2019-05-14T10:24:58.127Z,16.90
2019-05-14T10:27:28.407Z,16.70
2019-05-14T10:29:58.509Z,16.70
2019-05-14T10:32:25.215Z,16.70
2019-05-14T10:34:53.629Z,16.40
2019-05-14T10:37:20.097Z,16.00
2019-05-14T10:39:48.672Z,15.80
2019-05-14T10:42:14.976Z,15.90
2019-05-14T10:44:43.561Z,15.70
2019-05-14T10:47:12.009Z,16.10
2019-05-14T10:49:38.911Z,16.90
2019-05-14T10:52:05.293Z,17.70
2019-05-14T10:54:32.155Z,18.60
2019-05-14T10:56:59.689Z,18.70
2019-05-14T10:59:36.693Z,18.50
2019-05-14T11:02:11.554Z,18.30
2019-05-14T11:04:39.599Z,17.70
2019-05-14T11:07:06.107Z,17.40
2019-05-14T11:09:45.671Z,16.90
2019-05-14T11:12:12.204Z,16.70
2019-05-14T11:14:44.462Z,16.70
2019-05-14T11:17:11.993Z,16.80
2019-05-14T11:19:40.591Z,16.60
2019-05-14T11:22:08.456Z,16.60
2019-05-14T11:24:38.532Z,16.70
2019-05-14T11:27:05.447Z,16.70
2019-05-14T11:29:32.675Z,17.50
2019-05-14T11:32:00.214Z,18.20
2019-05-14T11:34:28.908Z,19.00
2019-05-14T11:36:55.617Z,19.60
2019-05-14T11:39:30.405Z,19.70
2019-05-14T11:41:59.003Z,20.30
2019-05-14T11:44:24.974Z,20.50
2019-05-14T11:46:57.715Z,20.40
2019-05-14T11:49:22.300Z,20.10
2019-05-14T11:52:01.003Z,19.70
2019-05-14T11:54:22.887Z,19.50
2019-05-14T11:56:48.328Z,19.80
2019-05-14T11:59:18.997Z,20.40
2019-05-14T12:01:45.496Z,21.10
2019-05-14T12:04:13.385Z,21.10
2019-05-14T12:06:39.903Z,20.70
2019-05-14T12:09:11.485Z,20.10
2019-05-14T12:11:38.312Z,19.30
2019-05-14T12:14:05.430Z,19.50
2019-05-14T12:16:39.271Z,19.90
2019-05-14T12:19:06.674Z,20.40
2019-05-14T12:21:33.425Z,21.10
2019-05-14T12:24:04.370Z,21.20
2019-05-14T12:26:29.460Z,20.80
2019-05-14T12:28:57.102Z,20.20
2019-05-14T12:31:24.047Z,19.80
2019-05-14T12:33:50.905Z,19.40
2019-05-14T12:36:19.461Z,19.10
2019-05-14T12:38:49.345Z,18.80
2019-05-14T12:41:21.051Z,18.60
2019-05-14T12:43:47.558Z,18.60
2019-05-14T12:46:14.259Z,19.10
2019-05-14T12:48:41.959Z,19.80
2019-05-14T12:51:09.160Z,20.40
2019-05-14T12:53:35.691Z,20.60
2019-05-14T12:56:08.715Z,20.60
2019-05-14T12:58:45.280Z,19.90
2019-05-14T13:01:09.570Z,19.60
2019-05-14T13:03:36.333Z,19.30
2019-05-14T13:06:02.995Z,19.40
2019-05-14T13:08:29.471Z,19.60
2019-05-14T13:10:58.453Z,19.80
2019-05-14T13:13:24.788Z,19.90
2019-05-14T13:15:51.273Z,19.90
2019-05-14T13:18:19.726Z,19.40
2019-05-14T13:20:48.313Z,18.90
2019-05-14T13:23:18.826Z,18.30
2019-05-14T13:25:46.609Z,18.00
2019-05-14T13:28:14.126Z,18.30
2019-05-14T13:30:44.474Z,18.90
2019-05-14T13:33:11.360Z,19.20
2019-05-14T13:35:38.909Z,19.10
2019-05-14T13:38:13.905Z,18.70
2019-05-14T13:40:39.179Z,18.30
2019-05-14T13:43:05.577Z,17.90
2019-05-14T13:45:32.057Z,17.60
2019-05-14T13:47:59.126Z,17.40
2019-05-14T13:50:29.030Z,17.10
2019-05-14T13:53:03.003Z,17.00
2019-05-14T13:55:28.046Z,16.90
2019-05-14T13:57:55.914Z,16.90
2019-05-14T14:00:22.974Z,16.80
2019-05-14T14:02:58.816Z,16.70
2019-05-14T14:05:24.925Z,16.60
2019-05-14T14:07:51.355Z,16.70
2019-05-14T14:10:22.370Z,16.70
2019-05-14T14:12:56.050Z,16.60
2019-05-14T14:15:23.960Z,16.50
2019-05-14T14:17:50.774Z,16.10
2019-05-14T14:20:19.539Z,15.70
2019-05-14T14:22:49.087Z,15.40
2019-05-14T14:25:17.726Z,15.20
2019-05-14T14:27:44.074Z,15.40
2019-05-14T14:30:11.342Z,15.80
2019-05-14T14:32:40.556Z,15.90
2019-05-14T14:35:08.505Z,15.80
2019-05-14T14:37:34.676Z,15.70
2019-05-14T14:40:01.561Z,16.30
2019-05-14T14:42:35.380Z,16.70
2019-05-14T14:45:00.176Z,16.90
2019-05-14T14:47:33.320Z,16.70
2019-05-14T14:50:00.514Z,16.20
2019-05-14T14:52:35.272Z,15.80
2019-05-14T14:55:02.707Z,15.50
2019-05-14T14:57:30.300Z,15.10
2019-05-14T14:59:58.207Z,15.20
2019-05-14T15:02:24.990Z,15.50
2019-05-14T15:04:51.441Z,15.90
2019-05-14T15:07:18.048Z,15.90
2019-05-14T15:09:44.857Z,15.70
2019-05-14T15:12:11.634Z,15.10
2019-05-14T15:14:39.564Z,14.70
2019-05-14T15:17:09.266Z,14.40
2019-05-14T15:19:34.848Z,14.10
2019-05-14T15:22:01.328Z,14.00
2019-05-14T15:24:27.951Z,13.80
2019-05-14T15:26:54.372Z,13.60
2019-05-14T15:29:21.165Z,13.70
2019-05-14T15:31:49.550Z,13.80
2019-05-14T15:34:19.017Z,14.10
2019-05-14T15:36:48.975Z,14.40
2019-05-14T15:39:13.860Z,14.60
2019-05-14T15:41:43.589Z,14.90
2019-05-14T15:44:10.134Z,15.10
2019-05-14T15:46:41.532Z,15.40
2019-05-14T15:49:05.287Z,15.70
2019-05-14T15:51:31.798Z,15.80
2019-05-14T15:54:23.663Z,15.70
2019-05-14T15:56:34.755Z,15.50
2019-05-14T15:59:02.238Z,15.20
2019-05-14T16:01:29.750Z,14.90
2019-05-14T16:03:58.785Z,14.50
2019-05-14T16:06:29.158Z,14.30
2019-05-14T16:08:58.977Z,14.00
2019-05-14T16:11:25.608Z,13.90
2019-05-14T16:13:52.680Z,13.80
2019-05-14T16:16:19.669Z,13.70
2019-05-14T16:18:48.009Z,13.60
2019-05-14T16:21:18.155Z,13.50
2019-05-14T16:23:44.319Z,13.30
2019-05-14T16:26:10.738Z,13.20
2019-05-14T16:28:39.665Z,13.00
2019-05-14T16:31:10.635Z,12.70
2019-05-14T16:33:40.325Z,12.60
2019-05-14T16:36:06.035Z,12.50
2019-05-14T16:38:32.738Z,12.30
2019-05-14T16:41:01.415Z,12.20
2019-05-14T16:43:32.476Z,12.00
2019-05-14T16:46:00.421Z,12.00
2019-05-14T16:48:29.039Z,12.00
2019-05-14T16:50:58.618Z,12.10
2019-05-14T16:53:26.061Z,12.10
2019-05-14T16:55:53.768Z,12.20
2019-05-14T16:58:29.984Z,12.30
2019-05-14T17:00:58.844Z,12.20
2019-05-14T17:03:29.547Z,12.30
2019-05-14T17:05:58.028Z,12.30
2019-05-14T17:08:28.276Z,12.20
2019-05-14T17:10:59.075Z,12.20
2019-05-14T17:13:25.850Z,12.00
2019-05-14T17:15:52.445Z,11.90
2019-05-14T17:18:21.169Z,11.90
2019-05-14T17:20:48.778Z,11.80
2019-05-14T17:23:15.358Z,11.70
2019-05-14T17:25:44.848Z,11.60
2019-05-14T17:28:13.255Z,11.50
2019-05-14T17:30:40.966Z,11.40
2019-05-14T17:33:09.696Z,11.30
2019-05-14T17:35:38.725Z,11.30
2019-05-14T17:38:04.711Z,11.20
2019-05-14T17:40:34.554Z,11.20
2019-05-14T17:43:00.954Z,11.10
2019-05-14T17:45:33.171Z,11.00
2019-05-14T17:47:59.596Z,10.90
2019-05-14T17:50:29.033Z,10.90
2019-05-14T17:52:56.970Z,10.80
2019-05-14T17:55:24.964Z,10.80
2019-05-14T17:57:58.454Z,10.80
2019-05-14T18:00:28.653Z,10.70
2019-05-14T18:03:03.395Z,10.60
2019-05-14T18:05:30.042Z,10.60
2019-05-14T18:07:59.128Z,10.50
2019-05-14T18:10:28.502Z,10.40
2019-05-14T18:12:59.519Z,10.30
2019-05-14T18:15:25.077Z,10.20
2019-05-14T18:17:53.625Z,10.10
2019-05-14T18:20:22.304Z,10.10
2019-05-14T18:22:49.700Z,10.00
2019-05-14T18:25:18.298Z,10.00
2019-05-14T18:27:45.251Z,9.80
2019-05-14T18:30:13.405Z,9.70
2019-05-14T18:32:41.204Z,9.60
2019-05-14T18:35:08.930Z,9.50
2019-05-14T18:37:49.389Z,9.40
2019-05-14T18:40:24.599Z,9.30
2019-05-14T18:42:51.305Z,9.10
2019-05-14T18:45:19.000Z,9.10
2019-05-14T18:47:49.799Z,9.00
2019-05-14T18:50:19.668Z,8.90
2019-05-14T18:52:49.573Z,8.70
2019-05-14T18:55:18.290Z,8.60
2019-05-14T18:57:45.629Z,8.50
2019-05-14T19:00:13.859Z,8.40
2019-05-14T19:02:41.528Z,8.30
2019-05-14T19:05:08.634Z,8.20
2019-05-14T19:07:35.722Z,8.10
2019-05-14T19:10:09.535Z,8.10
2019-05-14T19:12:38.495Z,8.00
2019-05-14T19:15:08.728Z,7.90
2019-05-14T19:17:51.443Z,7.80
2019-05-14T19:20:20.644Z,7.80
2019-05-14T19:22:49.026Z,7.60
2019-05-14T19:25:15.976Z,7.50
2019-05-14T19:27:49.991Z,7.50
2019-05-14T19:30:21.843Z,7.40
2019-05-14T19:32:49.191Z,7.30
2019-05-14T19:35:19.234Z,7.20
2019-05-14T19:37:48.700Z,7.10
2019-05-14T19:40:16.017Z,7.00
2019-05-14T19:42:49.991Z,7.00
2019-05-14T19:45:18.781Z,6.90
2019-05-14T19:47:49.128Z,6.90
2019-05-14T19:50:15.976Z,6.80
2019-05-14T19:52:48.966Z,6.70
2019-05-14T19:55:18.874Z,6.70
2019-05-14T19:57:48.801Z,6.60
2019-05-14T20:00:21.360Z,6.50
2019-05-14T20:02:48.707Z,6.40
2019-05-14T20:05:19.091Z,6.40
2019-05-14T20:07:48.941Z,6.40
2019-05-14T20:10:15.995Z,6.20
2019-05-14T20:12:45.022Z,6.20
2019-05-14T20:15:12.128Z,6.10
2019-05-14T20:17:40.420Z,6.10
2019-05-14T20:20:08.810Z,6.00
2019-05-14T20:22:39.483Z,5.90
2019-05-14T20:25:06.797Z,5.80
2019-05-14T20:27:33.796Z,5.70
2019-05-14T20:30:02.531Z,5.70
2019-05-14T20:32:30.259Z,5.60
2019-05-14T20:34:58.757Z,5.50
2019-05-14T20:37:29.130Z,5.50
2019-05-14T20:39:56.045Z,5.40
2019-05-14T20:42:26.249Z,5.30
2019-05-14T20:44:56.001Z,5.20
2019-05-14T20:47:22.290Z,5.20
2019-05-14T20:49:48.657Z,5.10
2019-05-14T20:52:15.044Z,5.00
2019-05-14T20:54:41.718Z,5.00
2019-05-14T20:57:22.980Z,4.90
2019-05-14T20:59:38.748Z,4.80
2019-05-14T21:02:04.868Z,4.70
2019-05-14T21:04:31.274Z,4.70
2019-05-14T21:06:58.782Z,4.70
2019-05-14T21:09:25.168Z,4.60
2019-05-14T21:11:51.581Z,4.50
2019-05-14T21:14:18.325Z,4.50
2019-05-14T21:16:44.978Z,4.40
2019-05-14T21:19:11.450Z,4.40
2019-05-14T21:21:38.344Z,4.30
2019-05-14T21:24:08.856Z,4.30
2019-05-14T21:26:35.317Z,4.20
2019-05-14T21:29:01.726Z,4.20
2019-05-14T21:31:28.579Z,4.10
2019-05-14T21:33:58.471Z,4.10
2019-05-14T21:36:24.576Z,4.00
2019-05-14T21:38:50.988Z,4.00
2019-05-14T21:41:20.154Z,4.00
2019-05-14T21:43:51.095Z,3.90
2019-05-14T21:46:22.242Z,3.90
2019-05-14T21:48:54.885Z,3.80
2019-05-14T21:51:21.147Z,3.80
2019-05-14T21:53:48.264Z,3.70
2019-05-14T21:56:14.829Z,3.70
2019-05-14T21:58:41.322Z,3.60
2019-05-14T22:01:09.071Z,3.60
2019-05-14T22:03:36.602Z,3.50
2019-05-14T22:06:03.065Z,3.60
2019-05-14T22:08:30.319Z,3.50
2019-05-14T22:10:59.174Z,3.50
2019-05-14T22:13:28.437Z,3.40
2019-05-14T22:15:54.916Z,3.40
2019-05-14T22:18:21.554Z,3.40
2019-05-14T22:20:49.207Z,3.40
2019-05-14T22:23:17.883Z,3.40
2019-05-14T22:25:43.816Z,3.30
2019-05-14T22:28:18.983Z,3.30
2019-05-14T22:30:45.270Z,3.30
2019-05-14T22:33:20.115Z,3.30
2019-05-14T22:35:48.572Z,3.30
2019-05-14T22:38:15.002Z,3.20
2019-05-14T22:40:42.493Z,3.30
2019-05-14T22:43:09.354Z,3.20
2019-05-14T22:45:35.874Z,3.30
2019-05-14T22:48:09.313Z,3.30
2019-05-14T22:50:35.803Z,3.30
2019-05-14T22:53:02.174Z,3.30
2019-05-14T22:55:31.214Z,3.30
2019-05-14T22:57:59.245Z,3.20
2019-05-14T23:00:28.294Z,3.20
2019-05-14T23:02:53.881Z,3.10
2019-05-14T23:05:20.309Z,3.10
2019-05-14T23:07:48.535Z,3.10
2019-05-14T23:10:15.281Z,3.00
2019-05-14T23:12:41.938Z,2.90
2019-05-14T23:15:08.938Z,2.90
2019-05-14T23:17:35.437Z,2.80
2019-05-14T23:20:03.902Z,2.80
2019-05-14T23:22:30.197Z,2.80
2019-05-14T23:25:01.723Z,2.70
2019-05-14T23:27:30.196Z,2.70
2019-05-14T23:29:58.584Z,2.70
2019-05-14T23:32:25.626Z,2.60
2019-05-14T23:34:52.290Z,2.60
2019-05-14T23:37:29.949Z,2.60
2019-05-14T23:39:58.551Z,2.60
2019-05-14T23:42:25.357Z,2.50
2019-05-14T23:44:51.877Z,2.50
2019-05-14T23:47:19.301Z,2.40
2019-05-14T23:49:48.255Z,2.40
2019-05-14T23:52:20.880Z,2.40
2019-05-14T23:54:48.096Z,2.30
2019-05-14T23:57:15.059Z,2.30
2019-05-14T23:59:43.498Z,2.30
